sensor_id;sensor_type;location;lat;lon;timestamp;temperature;humidity
46752;DHT22;32497;48.936;9.270;2023-08-06T00:00:54;14.60;93.30
46752;DHT22;32497;48.936;9.270;2023-08-06T00:05:57;14.70;93.40
46752;DHT22;32497;48.936;9.270;2023-08-06T00:10:58;14.70;93.40
46752;DHT22;32497;48.936;9.270;2023-08-06T00:16:09;14.60;92.90
46752;DHT22;32497;48.936;9.270;2023-08-06T00:21:11;14.50;93.40
46752;DHT22;32497;48.936;9.270;2023-08-06T00:26:12;14.50;93.40
46752;DHT22;32497;48.936;9.270;2023-08-06T00:31:13;14.50;93.30
46752;DHT22;32497;48.936;9.270;2023-08-06T00:36:17;14.40;93.20
46752;DHT22;32497;48.936;9.270;2023-08-06T00:41:18;14.20;93.10
46752;DHT22;32497;48.936;9.270;2023-08-06T00:46:19;14.20;93.30
46752;DHT22;32497;48.936;9.270;2023-08-06T00:51:22;14.20;93.40
46752;DHT22;32497;48.936;9.270;2023-08-06T00:56:24;14.20;93.50
46752;DHT22;32497;48.936;9.270;2023-08-06T01:01:26;14.30;93.50
46752;DHT22;32497;48.936;9.270;2023-08-06T01:06:42;14.40;93.50
46752;DHT22;32497;48.936;9.270;2023-08-06T01:11:54;14.40;93.60
46752;DHT22;32497;48.936;9.270;2023-08-06T01:16:58;14.60;93.50
46752;DHT22;32497;48.936;9.270;2023-08-06T01:22:01;14.60;93.50
46752;DHT22;32497;48.936;9.270;2023-08-06T01:27:06;14.60;93.30
46752;DHT22;32497;48.936;9.270;2023-08-06T01:32:11;14.60;93.20
46752;DHT22;32497;48.936;9.270;2023-08-06T01:37:14;14.60;93.20
46752;DHT22;32497;48.936;9.270;2023-08-06T01:42:15;14.40;93.10
46752;DHT22;32497;48.936;9.270;2023-08-06T01:47:16;14.30;92.90
46752;DHT22;32497;48.936;9.270;2023-08-06T01:52:19;14.30;93.20
46752;DHT22;32497;48.936;9.270;2023-08-06T01:57:20;14.40;93.30
46752;DHT22;32497;48.936;9.270;2023-08-06T02:02:22;14.40;93.30
46752;DHT22;32497;48.936;9.270;2023-08-06T02:07:24;14.50;93.30
46752;DHT22;32497;48.936;9.270;2023-08-06T02:12:25;14.50;93.20
46752;DHT22;32497;48.936;9.270;2023-08-06T02:17:26;14.40;93.20
46752;DHT22;32497;48.936;9.270;2023-08-06T02:22:29;14.20;92.90
46752;DHT22;32497;48.936;9.270;2023-08-06T02:27:30;14.20;93.00
46752;DHT22;32497;48.936;9.270;2023-08-06T02:32:31;14.30;93.20
46752;DHT22;32497;48.936;9.270;2023-08-06T02:37:36;14.20;93.00
46752;DHT22;32497;48.936;9.270;2023-08-06T02:42:37;14.20;92.50
46752;DHT22;32497;48.936;9.270;2023-08-06T02:47:38;14.20;92.10
46752;DHT22;32497;48.936;9.270;2023-08-06T02:52:41;14.20;92.20
46752;DHT22;32497;48.936;9.270;2023-08-06T02:57:44;14.10;92.20
46752;DHT22;32497;48.936;9.270;2023-08-06T03:02:45;14.10;91.90
46752;DHT22;32497;48.936;9.270;2023-08-06T03:07:58;14.10;91.50
46752;DHT22;32497;48.936;9.270;2023-08-06T03:13:03;14.10;91.50
46752;DHT22;32497;48.936;9.270;2023-08-06T03:18:04;14.00;91.70
46752;DHT22;32497;48.936;9.270;2023-08-06T03:23:06;14.00;92.00
46752;DHT22;32497;48.936;9.270;2023-08-06T03:28:08;13.90;92.00
46752;DHT22;32497;48.936;9.270;2023-08-06T03:33:10;13.90;92.00
46752;DHT22;32497;48.936;9.270;2023-08-06T03:38:13;13.90;91.80
46752;DHT22;32497;48.936;9.270;2023-08-06T03:43:14;13.80;91.70
46752;DHT22;32497;48.936;9.270;2023-08-06T03:48:15;13.70;91.20
46752;DHT22;32497;48.936;9.270;2023-08-06T03:53:18;13.70;91.20
46752;DHT22;32497;48.936;9.270;2023-08-06T03:58:19;13.80;91.10
46752;DHT22;32497;48.936;9.270;2023-08-06T04:03:20;13.70;91.00
46752;DHT22;32497;48.936;9.270;2023-08-06T04:08:23;13.80;90.80
46752;DHT22;32497;48.936;9.270;2023-08-06T04:13:24;13.70;90.70
46752;DHT22;32497;48.936;9.270;2023-08-06T04:18:25;13.70;90.90
46752;DHT22;32497;48.936;9.270;2023-08-06T04:23:28;13.80;91.00
46752;DHT22;32497;48.936;9.270;2023-08-06T04:28:33;13.80;90.70
46752;DHT22;32497;48.936;9.270;2023-08-06T04:33:34;13.90;91.40
46752;DHT22;32497;48.936;9.270;2023-08-06T04:38:42;14.10;91.40
46752;DHT22;32497;48.936;9.270;2023-08-06T04:43:44;14.20;91.50
46752;DHT22;32497;48.936;9.270;2023-08-06T04:48:45;14.10;89.90
46752;DHT22;32497;48.936;9.270;2023-08-06T04:53:47;14.20;90.40
46752;DHT22;32497;48.936;9.270;2023-08-06T04:58:48;14.20;89.70
46752;DHT22;32497;48.936;9.270;2023-08-06T05:03:50;14.30;90.70
46752;DHT22;32497;48.936;9.270;2023-08-06T05:08:52;14.60;90.70
46752;DHT22;32497;48.936;9.270;2023-08-06T05:13:53;14.70;90.50
46752;DHT22;32497;48.936;9.270;2023-08-06T05:18:54;14.70;89.70
46752;DHT22;32497;48.936;9.270;2023-08-06T05:23:57;14.70;89.40
46752;DHT22;32497;48.936;9.270;2023-08-06T05:28:58;14.90;90.10
46752;DHT22;32497;48.936;9.270;2023-08-06T05:33:59;15.40;88.90
46752;DHT22;32497;48.936;9.270;2023-08-06T05:39:02;15.70;88.60
46752;DHT22;32497;48.936;9.270;2023-08-06T05:44:03;15.70;87.30
46752;DHT22;32497;48.936;9.270;2023-08-06T05:49:04;15.90;87.30
46752;DHT22;32497;48.936;9.270;2023-08-06T05:54:07;15.90;87.90
46752;DHT22;32497;48.936;9.270;2023-08-06T05:59:08;15.70;87.90
46752;DHT22;32497;48.936;9.270;2023-08-06T06:04:09;15.50;88.20
46752;DHT22;32497;48.936;9.270;2023-08-06T06:09:11;15.20;88.70
46752;DHT22;32497;48.936;9.270;2023-08-06T06:14:12;15.10;88.80
46752;DHT22;32497;48.936;9.270;2023-08-06T06:19:13;14.90;88.60
46752;DHT22;32497;48.936;9.270;2023-08-06T06:24:16;14.80;89.30
46752;DHT22;32497;48.936;9.270;2023-08-06T06:29:17;15.00;89.10
46752;DHT22;32497;48.936;9.270;2023-08-06T06:34:18;14.90;89.50
46752;DHT22;32497;48.936;9.270;2023-08-06T06:39:21;14.80;89.20
46752;DHT22;32497;48.936;9.270;2023-08-06T06:44:22;14.90;89.60
46752;DHT22;32497;48.936;9.270;2023-08-06T06:49:23;14.70;89.60
46752;DHT22;32497;48.936;9.270;2023-08-06T06:54:25;14.70;89.60
46752;DHT22;32497;48.936;9.270;2023-08-06T06:59:26;14.70;89.70
46752;DHT22;32497;48.936;9.270;2023-08-06T07:04:28;14.50;87.70
46752;DHT22;32497;48.936;9.270;2023-08-06T07:09:30;14.30;87.20
46752;DHT22;32497;48.936;9.270;2023-08-06T07:14:31;14.30;88.50
46752;DHT22;32497;48.936;9.270;2023-08-06T07:19:32;14.50;88.50
46752;DHT22;32497;48.936;9.270;2023-08-06T07:24:35;14.80;86.90
46752;DHT22;32497;48.936;9.270;2023-08-06T07:29:36;14.70;87.10
46752;DHT22;32497;48.936;9.270;2023-08-06T07:34:37;14.70;87.60
46752;DHT22;32497;48.936;9.270;2023-08-06T07:39:39;14.60;87.60
46752;DHT22;32497;48.936;9.270;2023-08-06T07:44:40;14.60;85.80
46752;DHT22;32497;48.936;9.270;2023-08-06T07:49:42;14.40;87.10
46752;DHT22;32497;48.936;9.270;2023-08-06T07:54:44;14.40;87.80
46752;DHT22;32497;48.936;9.270;2023-08-06T07:59:45;14.50;88.10
46752;DHT22;32497;48.936;9.270;2023-08-06T08:04:46;14.40;86.90
46752;DHT22;32497;48.936;9.270;2023-08-06T08:09:49;14.50;87.70
46752;DHT22;32497;48.936;9.270;2023-08-06T08:14:50;14.50;87.50
46752;DHT22;32497;48.936;9.270;2023-08-06T08:19:51;14.60;86.80
46752;DHT22;32497;48.936;9.270;2023-08-06T08:24:53;14.60;87.20
46752;DHT22;32497;48.936;9.270;2023-08-06T08:29:54;14.70;86.50
46752;DHT22;32497;48.936;9.270;2023-08-06T08:34:56;15.10;86.40
46752;DHT22;32497;48.936;9.270;2023-08-06T08:39:58;15.60;85.70
46752;DHT22;32497;48.936;9.270;2023-08-06T08:44:59;15.80;82.70
46752;DHT22;32497;48.936;9.270;2023-08-06T08:50:01;15.90;83.00
46752;DHT22;32497;48.936;9.270;2023-08-06T08:55:07;15.50;83.10
46752;DHT22;32497;48.936;9.270;2023-08-06T09:00:08;15.30;84.40
46752;DHT22;32497;48.936;9.270;2023-08-06T09:05:10;15.40;84.80
46752;DHT22;32497;48.936;9.270;2023-08-06T09:10:14;15.40;84.50
46752;DHT22;32497;48.936;9.270;2023-08-06T09:15:17;14.90;87.60
46752;DHT22;32497;48.936;9.270;2023-08-06T09:20:18;14.30;90.60
46752;DHT22;32497;48.936;9.270;2023-08-06T09:25:23;14.70;91.10
46752;DHT22;32497;48.936;9.270;2023-08-06T09:30:31;14.60;90.40
46752;DHT22;32497;48.936;9.270;2023-08-06T09:35:33;14.40;91.00
46752;DHT22;32497;48.936;9.270;2023-08-06T09:40:35;14.60;89.90
46752;DHT22;32497;48.936;9.270;2023-08-06T09:45:38;14.80;90.60
46752;DHT22;32497;48.936;9.270;2023-08-06T09:50:39;15.20;90.00
46752;DHT22;32497;48.936;9.270;2023-08-06T09:55:41;15.20;89.60
46752;DHT22;32497;48.936;9.270;2023-08-06T10:00:43;15.10;89.20
46752;DHT22;32497;48.936;9.270;2023-08-06T10:05:49;15.20;89.00
46752;DHT22;32497;48.936;9.270;2023-08-06T10:11:11;15.00;86.90
46752;DHT22;32497;48.936;9.270;2023-08-06T10:16:13;15.00;87.00
46752;DHT22;32497;48.936;9.270;2023-08-06T10:21:15;15.00;89.50
46752;DHT22;32497;48.936;9.270;2023-08-06T10:26:18;15.10;88.00
46752;DHT22;32497;48.936;9.270;2023-08-06T10:31:19;14.90;86.90
46752;DHT22;32497;48.936;9.270;2023-08-06T10:36:20;15.30;86.90
46752;DHT22;32497;48.936;9.270;2023-08-06T10:41:28;15.60;86.00
46752;DHT22;32497;48.936;9.270;2023-08-06T10:46:29;15.40;84.90
46752;DHT22;32497;48.936;9.270;2023-08-06T10:51:30;15.40;84.30
46752;DHT22;32497;48.936;9.270;2023-08-06T10:56:39;15.50;83.50
46752;DHT22;32497;48.936;9.270;2023-08-06T11:01:41;15.40;84.20
46752;DHT22;32497;48.936;9.270;2023-08-06T11:06:42;15.40;83.00
46752;DHT22;32497;48.936;9.270;2023-08-06T11:11:45;15.40;83.00
46752;DHT22;32497;48.936;9.270;2023-08-06T11:16:46;15.60;82.10
46752;DHT22;32497;48.936;9.270;2023-08-06T11:21:47;15.70;83.10
46752;DHT22;32497;48.936;9.270;2023-08-06T11:26:50;15.60;83.40
46752;DHT22;32497;48.936;9.270;2023-08-06T11:31:51;15.70;82.20
46752;DHT22;32497;48.936;9.270;2023-08-06T11:36:52;15.80;82.00
46752;DHT22;32497;48.936;9.270;2023-08-06T11:41:54;15.80;81.10
46752;DHT22;32497;48.936;9.270;2023-08-06T11:46:56;15.60;82.70
46752;DHT22;32497;48.936;9.270;2023-08-06T11:51:57;15.20;85.20
46752;DHT22;32497;48.936;9.270;2023-08-06T11:57:01;14.70;85.70
46752;DHT22;32497;48.936;9.270;2023-08-06T12:02:02;14.60;85.10
46752;DHT22;32497;48.936;9.270;2023-08-06T12:07:06;14.40;86.30
46752;DHT22;32497;48.936;9.270;2023-08-06T12:12:09;14.40;86.80
46752;DHT22;32497;48.936;9.270;2023-08-06T12:17:10;14.60;86.80
46752;DHT22;32497;48.936;9.270;2023-08-06T12:22:11;14.50;87.60
46752;DHT22;32497;48.936;9.270;2023-08-06T12:27:13;14.30;88.40
46752;DHT22;32497;48.936;9.270;2023-08-06T12:32:15;14.10;88.70
46752;DHT22;32497;48.936;9.270;2023-08-06T12:37:16;14.10;88.60
46752;DHT22;32497;48.936;9.270;2023-08-06T12:42:19;14.20;89.10
46752;DHT22;32497;48.936;9.270;2023-08-06T12:47:20;14.00;89.60
46752;DHT22;32497;48.936;9.270;2023-08-06T12:52:21;14.00;90.40
46752;DHT22;32497;48.936;9.270;2023-08-06T12:57:24;13.90;89.20
46752;DHT22;32497;48.936;9.270;2023-08-06T13:02:25;13.90;89.80
46752;DHT22;32497;48.936;9.270;2023-08-06T13:07:26;14.00;88.80
46752;DHT22;32497;48.936;9.270;2023-08-06T13:12:28;14.20;89.60
46752;DHT22;32497;48.936;9.270;2023-08-06T13:17:29;14.60;89.00
46752;DHT22;32497;48.936;9.270;2023-08-06T13:22:30;14.90;86.90
46752;DHT22;32497;48.936;9.270;2023-08-06T13:27:33;15.20;86.80
46752;DHT22;32497;48.936;9.270;2023-08-06T13:32:34;15.40;85.90
46752;DHT22;32497;48.936;9.270;2023-08-06T13:37:35;15.20;85.30
46752;DHT22;32497;48.936;9.270;2023-08-06T13:42:37;15.10;85.20
46752;DHT22;32497;48.936;9.270;2023-08-06T13:47:39;15.10;85.10
46752;DHT22;32497;48.936;9.270;2023-08-06T13:52:40;15.10;85.20
46752;DHT22;32497;48.936;9.270;2023-08-06T13:57:42;15.10;85.80
46752;DHT22;32497;48.936;9.270;2023-08-06T14:02:44;15.20;84.40
46752;DHT22;32497;48.936;9.270;2023-08-06T14:07:45;15.30;83.00
46752;DHT22;32497;48.936;9.270;2023-08-06T14:12:47;15.30;83.50
46752;DHT22;32497;48.936;9.270;2023-08-06T14:17:48;15.60;83.80
46752;DHT22;32497;48.936;9.270;2023-08-06T14:22:49;16.40;82.90
46752;DHT22;32497;48.936;9.270;2023-08-06T14:27:52;16.50;80.50
46752;DHT22;32497;48.936;9.270;2023-08-06T14:32:53;16.70;79.10
46752;DHT22;32497;48.936;9.270;2023-08-06T14:37:54;16.20;79.80
46752;DHT22;32497;48.936;9.270;2023-08-06T14:42:56;16.00;80.80
46752;DHT22;32497;48.936;9.270;2023-08-06T14:47:58;15.30;82.90
46752;DHT22;32497;48.936;9.270;2023-08-06T14:52:59;14.80;86.10
46752;DHT22;32497;48.936;9.270;2023-08-06T14:58:02;14.40;87.60
46752;DHT22;32497;48.936;9.270;2023-08-06T15:03:03;14.20;89.80
46752;DHT22;32497;48.936;9.270;2023-08-06T15:08:05;14.10;90.00
46752;DHT22;32497;48.936;9.270;2023-08-06T15:13:08;14.10;90.70
46752;DHT22;32497;48.936;9.270;2023-08-06T15:18:09;14.30;89.90
46752;DHT22;32497;48.936;9.270;2023-08-06T15:23:10;14.50;89.80
46752;DHT22;32497;48.936;9.270;2023-08-06T15:28:13;14.70;90.50
46752;DHT22;32497;48.936;9.270;2023-08-06T15:33:14;14.60;88.10
46752;DHT22;32497;48.936;9.270;2023-08-06T15:38:15;14.50;88.00
46752;DHT22;32497;48.936;9.270;2023-08-06T15:43:17;14.50;88.10
46752;DHT22;32497;48.936;9.270;2023-08-06T15:48:18;14.50;86.70
46752;DHT22;32497;48.936;9.270;2023-08-06T15:53:20;14.50;86.70
46752;DHT22;32497;48.936;9.270;2023-08-06T15:58:22;14.40;87.50
46752;DHT22;32497;48.936;9.270;2023-08-06T16:03:23;14.20;86.90
46752;DHT22;32497;48.936;9.270;2023-08-06T16:08:24;14.20;88.80
46752;DHT22;32497;48.936;9.270;2023-08-06T16:13:27;14.30;89.90
46752;DHT22;32497;48.936;9.270;2023-08-06T16:18:28;14.20;88.40
46752;DHT22;32497;48.936;9.270;2023-08-06T16:23:29;14.10;89.30
46752;DHT22;32497;48.936;9.270;2023-08-06T16:28:32;14.20;89.50
46752;DHT22;32497;48.936;9.270;2023-08-06T16:33:33;13.80;89.80
46752;DHT22;32497;48.936;9.270;2023-08-06T16:38:34;13.50;90.40
46752;DHT22;32497;48.936;9.270;2023-08-06T16:43:36;13.30;91.30
46752;DHT22;32497;48.936;9.270;2023-08-06T16:48:38;13.10;91.90
46752;DHT22;32497;48.936;9.270;2023-08-06T16:53:39;13.00;91.10
46752;DHT22;32497;48.936;9.270;2023-08-06T16:58:41;12.90;91.40
46752;DHT22;32497;48.936;9.270;2023-08-06T17:03:42;12.80;92.20
46752;DHT22;32497;48.936;9.270;2023-08-06T17:08:43;13.00;92.70
46752;DHT22;32497;48.936;9.270;2023-08-06T17:13:46;13.10;92.40
46752;DHT22;32497;48.936;9.270;2023-08-06T17:18:47;13.20;92.20
46752;DHT22;32497;48.936;9.270;2023-08-06T17:23:48;13.20;92.40
46752;DHT22;32497;48.936;9.270;2023-08-06T17:28:51;13.10;92.30
46752;DHT22;32497;48.936;9.270;2023-08-06T17:33:52;13.00;92.40
46752;DHT22;32497;48.936;9.270;2023-08-06T17:38:53;12.90;92.50
46752;DHT22;32497;48.936;9.270;2023-08-06T17:43:56;12.80;92.50
46752;DHT22;32497;48.936;9.270;2023-08-06T17:48:57;12.80;92.40
46752;DHT22;32497;48.936;9.270;2023-08-06T17:53:58;12.80;92.60
46752;DHT22;32497;48.936;9.270;2023-08-06T17:59:00;12.70;92.70
46752;DHT22;32497;48.936;9.270;2023-08-06T18:04:02;12.80;92.50
46752;DHT22;32497;48.936;9.270;2023-08-06T18:09:03;12.90;92.60
46752;DHT22;32497;48.936;9.270;2023-08-06T18:14:05;12.80;91.90
46752;DHT22;32497;48.936;9.270;2023-08-06T18:19:07;12.70;91.80
46752;DHT22;32497;48.936;9.270;2023-08-06T18:24:08;12.70;91.50
46752;DHT22;32497;48.936;9.270;2023-08-06T18:29:10;12.70;91.90
46752;DHT22;32497;48.936;9.270;2023-08-06T18:34:11;12.70;91.30
46752;DHT22;32497;48.936;9.270;2023-08-06T18:39:12;12.80;91.30
46752;DHT22;32497;48.936;9.270;2023-08-06T18:44:15;12.80;91.00
46752;DHT22;32497;48.936;9.270;2023-08-06T18:49:16;12.70;91.00
46752;DHT22;32497;48.936;9.270;2023-08-06T18:54:17;12.70;91.10
46752;DHT22;32497;48.936;9.270;2023-08-06T18:59:19;12.70;91.00
46752;DHT22;32497;48.936;9.270;2023-08-06T19:04:21;12.70;91.10
46752;DHT22;32497;48.936;9.270;2023-08-06T19:09:22;12.70;90.50
46752;DHT22;32497;48.936;9.270;2023-08-06T19:14:24;12.80;90.40
46752;DHT22;32497;48.936;9.270;2023-08-06T19:19:25;12.80;90.30
46752;DHT22;32497;48.936;9.270;2023-08-06T19:24:26;12.70;90.50
46752;DHT22;32497;48.936;9.270;2023-08-06T19:29:29;12.70;89.80
46752;DHT22;32497;48.936;9.270;2023-08-06T19:34:30;12.70;89.30
46752;DHT22;32497;48.936;9.270;2023-08-06T19:39:31;12.80;89.70
46752;DHT22;32497;48.936;9.270;2023-08-06T19:44:34;12.70;89.50
46752;DHT22;32497;48.936;9.270;2023-08-06T19:49:35;12.70;88.50
46752;DHT22;32497;48.936;9.270;2023-08-06T19:54:36;12.80;88.60
46752;DHT22;32497;48.936;9.270;2023-08-06T19:59:38;12.90;86.80
46752;DHT22;32497;48.936;9.270;2023-08-06T20:04:39;12.90;87.70
46752;DHT22;32497;48.936;9.270;2023-08-06T20:09:41;12.90;86.70
46752;DHT22;32497;48.936;9.270;2023-08-06T20:14:43;13.00;85.40
46752;DHT22;32497;48.936;9.270;2023-08-06T20:19:44;13.00;84.50
46752;DHT22;32497;48.936;9.270;2023-08-06T20:24:45;13.10;85.20
46752;DHT22;32497;48.936;9.270;2023-08-06T20:29:48;13.00;85.60
46752;DHT22;32497;48.936;9.270;2023-08-06T20:34:51;12.80;86.60
46752;DHT22;32497;48.936;9.270;2023-08-06T20:39:52;12.70;86.90
46752;DHT22;32497;48.936;9.270;2023-08-06T20:44:55;12.60;87.20
46752;DHT22;32497;48.936;9.270;2023-08-06T20:49:56;12.50;87.80
46752;DHT22;32497;48.936;9.270;2023-08-06T20:54:57;12.50;87.60
46752;DHT22;32497;48.936;9.270;2023-08-06T20:59:59;12.40;88.40
46752;DHT22;32497;48.936;9.270;2023-08-06T21:05:00;12.30;88.70
46752;DHT22;32497;48.936;9.270;2023-08-06T21:10:02;12.30;89.40
46752;DHT22;32497;48.936;9.270;2023-08-06T21:15:06;12.20;89.20
46752;DHT22;32497;48.936;9.270;2023-08-06T21:20:08;12.20;89.90
46752;DHT22;32497;48.936;9.270;2023-08-06T21:25:09;12.20;90.00
46752;DHT22;32497;48.936;9.270;2023-08-06T21:30:11;12.10;90.10
46752;DHT22;32497;48.936;9.270;2023-08-06T21:35:12;12.00;90.30
46752;DHT22;32497;48.936;9.270;2023-08-06T21:40:13;12.00;90.20
46752;DHT22;32497;48.936;9.270;2023-08-06T21:45:16;12.00;90.70
46752;DHT22;32497;48.936;9.270;2023-08-06T21:50:17;12.00;90.00
46752;DHT22;32497;48.936;9.270;2023-08-06T21:55:18;11.90;90.40
46752;DHT22;32497;48.936;9.270;2023-08-06T22:00:21;11.90;90.70
46752;DHT22;32497;48.936;9.270;2023-08-06T22:05:22;11.90;90.60
46752;DHT22;32497;48.936;9.270;2023-08-06T22:10:23;11.90;90.30
46752;DHT22;32497;48.936;9.270;2023-08-06T22:15:26;11.90;90.60
46752;DHT22;32497;48.936;9.270;2023-08-06T22:20:27;11.80;90.30
46752;DHT22;32497;48.936;9.270;2023-08-06T22:25:28;11.90;90.70
46752;DHT22;32497;48.936;9.270;2023-08-06T22:30:31;11.80;90.50
46752;DHT22;32497;48.936;9.270;2023-08-06T22:35:32;11.80;90.30
46752;DHT22;32497;48.936;9.270;2023-08-06T22:40:33;11.80;90.20
46752;DHT22;32497;48.936;9.270;2023-08-06T22:45:35;11.80;90.50
46752;DHT22;32497;48.936;9.270;2023-08-06T22:50:36;11.80;90.30
46752;DHT22;32497;48.936;9.270;2023-08-06T22:55:37;11.90;90.10
46752;DHT22;32497;48.936;9.270;2023-08-06T23:00:40;11.80;89.90
46752;DHT22;32497;48.936;9.270;2023-08-06T23:05:41;11.90;90.10
46752;DHT22;32497;48.936;9.270;2023-08-06T23:10:42;11.90;89.70
46752;DHT22;32497;48.936;9.270;2023-08-06T23:15:44;11.90;89.80
46752;DHT22;32497;48.936;9.270;2023-08-06T23:20:45;11.90;89.40
46752;DHT22;32497;48.936;9.270;2023-08-06T23:25:47;11.90;89.90
46752;DHT22;32497;48.936;9.270;2023-08-06T23:30:49;11.90;90.00
46752;DHT22;32497;48.936;9.270;2023-08-06T23:35:50;11.90;89.60
46752;DHT22;32497;48.936;9.270;2023-08-06T23:40:51;11.90;89.30
46752;DHT22;32497;48.936;9.270;2023-08-06T23:45:54;11.90;88.90
46752;DHT22;32497;48.936;9.270;2023-08-06T23:50:55;11.90;88.80
46752;DHT22;32497;48.936;9.270;2023-08-06T23:55:56;11.90;89.00
